Time;durP1;ratioP1;P1;durP2;ratioP2;P2;SDS_P1;SDS_P2;PMS_P1;PMS_P2;Temp;Humidity;BMP_temperature;BMP_pressure;BME280_temperature;BME280_humidity;BME280_pressure;Samples;Min_cycle;Max_cycle;Signal;HPM_P1;HPM_P2
2022/01/30 00:01:54;;;;;;;20.48;4.13;;;6.10;99.90;;;;;;5052501;28;20045;-63
2022/01/30 00:04:20;;;;;;;23.77;4.47;;;6.20;99.90;;;;;;5053413;28;20080;-64
2022/01/30 00:06:46;;;;;;;18.05;4.40;;;6.20;99.90;;;;;;5055692;28;20048;-64
2022/01/30 00:09:21;;;;;;;17.85;3.55;;;6.20;99.90;;;;;;5057221;28;20377;-64
2022/01/30 00:11:52;;;;;;;19.13;3.53;;;6.10;99.90;;;;;;5056958;28;20377;-63
2022/01/30 00:14:19;;;;;;;16.92;4.47;;;6.10;99.90;;;;;;5057136;28;20087;-65
2022/01/30 00:16:45;;;;;;;19.45;3.92;;;6.10;99.90;;;;;;5055476;28;20057;-62
2022/01/30 00:19:26;;;;;;;18.25;4.18;;;6.00;99.90;;;;;;5056820;28;20044;-62
2022/01/30 00:22:02;;;;;;;24.52;4.53;;;6.10;99.90;;;;;;5056728;28;20047;-64
2022/01/30 00:24:43;;;;;;;23.20;4.03;;;6.10;99.90;;;;;;5056756;28;20043;-64
2022/01/30 00:27:16;;;;;;;26.90;4.50;;;6.20;99.90;;;;;;5055850;28;20447;-63
2022/01/30 00:29:41;;;;;;;20.60;4.70;;;6.10;99.90;;;;;;5055553;28;20080;-63
2022/01/30 00:32:08;;;;;;;21.08;4.20;;;6.10;99.90;;;;;;5056110;28;20076;-65
2022/01/30 00:34:33;;;;;;;21.95;3.97;;;6.00;99.90;;;;;;5055665;28;20091;-64
2022/01/30 00:37:01;;;;;;;16.75;3.80;;;6.00;99.90;;;;;;5056711;28;20045;-64
2022/01/30 00:39:27;;;;;;;22.73;4.00;;;6.00;99.90;;;;;;5055388;28;20049;-64
2022/01/30 00:41:53;;;;;;;20.02;4.18;;;5.90;99.90;;;;;;5056315;28;20047;-62
2022/01/30 00:44:18;;;;;;;20.50;4.25;;;5.90;99.90;;;;;;5056852;28;20465;-63
2022/01/30 00:46:44;;;;;;;20.63;4.10;;;5.90;99.90;;;;;;5056574;28;20187;-62
2022/01/30 00:49:10;;;;;;;20.75;3.63;;;5.90;99.90;;;;;;5055731;28;20037;-63
2022/01/30 00:51:37;;;;;;;20.33;3.80;;;6.00;99.90;;;;;;5056151;28;20037;-62
2022/01/30 00:54:04;;;;;;;20.50;4.18;;;6.10;99.90;;;;;;5055685;28;20048;-62
2022/01/30 00:56:30;;;;;;;19.73;3.88;;;6.10;99.90;;;;;;5056525;28;20041;-63
2022/01/30 00:58:55;;;;;;;20.98;4.03;;;6.10;99.90;;;;;;5056085;28;20041;-64
2022/01/30 01:01:21;;;;;;;20.00;4.20;;;6.00;99.90;;;;;;5055903;28;20055;-63
2022/01/30 01:03:46;;;;;;;22.73;4.35;;;6.10;99.90;;;;;;5056419;28;20210;-64
2022/01/30 01:06:12;;;;;;;24.50;4.60;;;6.10;99.90;;;;;;5056203;28;20037;-62
2022/01/30 01:24:38;;;;;;;18.58;3.70;;;5.90;99.90;;;;;;5056106;28;20077;-62
2022/01/30 01:27:04;;;;;;;14.65;2.80;;;5.80;99.90;;;;;;5055606;28;20469;-62
2022/01/30 01:29:30;;;;;;;18.13;3.47;;;5.80;99.90;;;;;;5055574;28;20044;-62
2022/01/30 01:31:55;;;;;;;20.02;3.90;;;5.80;99.90;;;;;;5055157;28;20442;-62
2022/01/30 01:34:33;;;;;;;14.68;3.50;;;5.80;99.90;;;;;;5054477;28;20057;-62
2022/01/30 01:37:00;;;;;;;17.05;3.05;;;5.80;99.90;;;;;;5054648;28;20041;-62
2022/01/30 01:39:26;;;;;;;14.35;3.17;;;5.80;99.90;;;;;;5055154;28;20351;-62
2022/01/30 01:41:52;;;;;;;17.02;3.30;;;5.80;99.90;;;;;;5053980;28;20481;-62
2022/01/30 01:44:23;;;;;;;12.60;3.20;;;5.70;99.90;;;;;;5055356;28;20048;-62
2022/01/30 01:46:49;;;;;;;15.48;3.17;;;5.70;99.90;;;;;;5054322;28;20049;-64
2022/01/30 01:49:21;;;;;;;21.50;4.00;;;5.60;99.90;;;;;;5055509;28;20051;-62
2022/01/30 01:52:01;;;;;;;15.25;3.70;;;5.60;99.90;;;;;;5055324;28;20060;-62
2022/01/30 01:54:27;;;;;;;14.73;3.47;;;5.60;99.90;;;;;;5055230;28;20446;-62
2022/01/30 01:56:53;;;;;;;15.95;3.33;;;5.50;99.90;;;;;;5054351;28;20040;-62
2022/01/30 01:59:18;;;;;;;22.55;4.00;;;5.60;99.90;;;;;;5055069;28;20036;-63
2022/01/30 02:01:49;;;;;;;18.00;3.65;;;5.60;99.90;;;;;;5055044;28;20035;-63
2022/01/30 02:04:14;;;;;;;21.95;4.03;;;5.60;99.90;;;;;;5055367;28;20684;-63
2022/01/30 02:06:40;;;;;;;22.05;3.95;;;5.60;99.90;;;;;;5054218;28;20052;-63
2022/01/30 02:09:10;;;;;;;24.08;4.45;;;5.70;99.90;;;;;;5054991;28;20098;-63
2022/01/30 02:11:40;;;;;;;24.63;4.50;;;5.70;99.90;;;;;;5054963;28;20064;-63
2022/01/30 02:25:07;;;;;;;21.33;3.80;;;5.70;99.90;;;;;;5053828;28;20037;-63
2022/01/30 02:27:36;;;;;;;16.90;3.70;;;5.90;99.90;;;;;;5053349;28;20049;-63
2022/01/30 02:30:10;;;;;;;17.48;3.88;;;5.80;99.90;;;;;;5054508;28;20115;-63
2022/01/30 02:32:36;;;;;;;20.55;3.30;;;5.80;99.90;;;;;;5054021;28;20053;-63
2022/01/30 02:35:02;;;;;;;15.32;4.28;;;5.80;99.90;;;;;;5054577;28;20033;-63
2022/01/30 02:37:28;;;;;;;20.13;4.50;;;5.80;99.90;;;;;;5053130;28;20516;-62
2022/01/30 02:39:53;;;;;;;24.20;4.45;;;5.80;99.90;;;;;;5054381;28;20036;-63
2022/01/30 02:42:23;;;;;;;25.08;4.45;;;5.90;99.90;;;;;;5054225;28;20041;-62
2022/01/30 02:44:56;;;;;;;30.17;5.32;;;5.90;99.90;;;;;;5054155;28;20722;-63
2022/01/30 02:47:39;;;;;;;27.80;4.13;;;6.00;99.90;;;;;;5053963;28;20438;-63
2022/01/30 02:52:41;;;;;;;17.58;3.75;;;5.90;99.90;;;;;;5034014;28;20132;-63
2022/01/30 02:55:08;;;;;;;22.40;4.35;;;5.80;99.90;;;;;;5034354;28;20106;-63
2022/01/30 02:57:34;;;;;;;25.20;4.30;;;5.80;99.90;;;;;;5034725;28;20052;-62
2022/01/30 02:59:59;;;;;;;19.63;3.80;;;5.70;99.90;;;;;;5054145;28;20041;-63
2022/01/30 03:02:25;;;;;;;17.08;4.55;;;5.70;99.90;;;;;;5053496;28;20072;-62
2022/01/30 03:04:50;;;;;;;17.90;4.38;;;5.70;99.90;;;;;;5054351;28;20047;-64
2022/01/30 03:07:16;;;;;;;17.27;3.83;;;5.70;99.90;;;;;;5054250;28;20037;-62
2022/01/30 03:09:41;;;;;;;13.80;3.47;;;5.70;99.90;;;;;;5053952;28;20072;-62
2022/01/30 03:12:08;;;;;;;16.95;3.15;;;5.70;99.90;;;;;;5053324;28;20110;-63
2022/01/30 03:14:33;;;;;;;17.13;3.72;;;5.60;99.90;;;;;;5053724;28;20071;-63
2022/01/30 03:17:00;;;;;;;18.23;4.05;;;5.60;99.90;;;;;;5053736;28;20454;-62
2022/01/30 03:19:25;;;;;;;15.73;3.33;;;5.60;99.90;;;;;;5053496;28;20052;-62
2022/01/30 03:21:51;;;;;;;21.35;4.05;;;5.60;99.90;;;;;;5053117;28;20037;-62
2022/01/30 03:24:17;;;;;;;20.00;4.22;;;5.60;99.90;;;;;;5052815;28;20065;-62
2022/01/30 03:26:42;;;;;;;18.13;4.28;;;5.60;99.90;;;;;;5053994;28;20033;-62
2022/01/30 03:29:09;;;;;;;21.58;3.60;;;5.60;99.90;;;;;;5053510;28;20101;-62
2022/01/30 03:31:37;;;;;;;13.18;3.22;;;5.60;99.90;;;;;;5053014;28;20037;-62
2022/01/30 03:34:06;;;;;;;20.23;4.00;;;5.50;99.90;;;;;;5053251;28;20382;-62
2022/01/30 03:36:31;;;;;;;18.40;3.83;;;5.60;99.90;;;;;;5053390;28;20047;-64
2022/01/30 03:38:58;;;;;;;20.83;3.83;;;5.50;99.90;;;;;;5053242;28;20033;-63
2022/01/30 03:41:27;;;;;;;18.95;3.97;;;5.50;99.90;;;;;;5051391;28;20073;-62
2022/01/30 03:43:53;;;;;;;24.02;4.35;;;5.40;99.90;;;;;;5053561;28;20395;-62
2022/01/30 03:46:22;;;;;;;18.90;4.63;;;5.40;99.90;;;;;;5053422;28;20033;-62
2022/01/30 03:48:48;;;;;;;26.40;4.68;;;5.40;99.90;;;;;;5053293;28;20434;-62
2022/01/30 03:51:14;;;;;;;26.90;5.18;;;5.40;99.90;;;;;;5053265;28;20120;-62
2022/01/30 03:53:41;;;;;;;22.50;4.43;;;5.40;99.90;;;;;;5053715;28;20135;-61
2022/01/30 03:56:07;;;;;;;28.17;5.47;;;5.30;99.90;;;;;;5052561;28;20103;-61
2022/01/30 03:58:34;;;;;;;28.45;5.32;;;5.30;99.90;;;;;;5052827;28;20475;-63
2022/01/30 04:01:00;;;;;;;27.42;5.28;;;5.30;99.90;;;;;;5052877;28;20040;-62
2022/01/30 04:03:25;;;;;;;27.20;4.93;;;5.30;99.90;;;;;;5053452;28;20040;-62
2022/01/30 04:05:51;;;;;;;29.58;5.60;;;5.40;99.90;;;;;;5053397;28;20086;-64
2022/01/30 04:08:17;;;;;;;28.83;6.30;;;5.50;99.90;;;;;;5053228;28;20102;-62
2022/01/30 04:10:43;;;;;;;25.42;4.75;;;5.50;99.90;;;;;;5053062;28;20044;-63
2022/01/30 04:13:09;;;;;;;35.75;6.38;;;5.50;99.90;;;;;;5053361;28;20124;-63
2022/01/30 04:15:35;;;;;;;31.05;5.57;;;5.50;99.90;;;;;;5052845;28;20118;-63
2022/01/30 04:18:02;;;;;;;24.50;5.35;;;5.60;99.90;;;;;;5052704;28;20040;-63
2022/01/30 04:20:28;;;;;;;31.40;5.93;;;5.50;99.90;;;;;;5052590;28;20048;-62
2022/01/30 04:22:54;;;;;;;24.30;5.55;;;5.50;99.90;;;;;;5053208;28;20096;-63
2022/01/30 04:25:20;;;;;;;31.20;6.68;;;5.50;99.90;;;;;;5052939;28;20405;-62
2022/01/30 04:27:46;;;;;;;27.73;5.97;;;5.40;99.90;;;;;;5052635;28;20102;-62
2022/01/30 04:30:12;;;;;;;29.85;6.43;;;5.40;99.90;;;;;;5053480;28;20053;-63
2022/01/30 04:32:43;;;;;;;30.98;6.35;;;5.40;99.90;;;;;;5052484;28;20466;-62
2022/01/30 04:35:19;;;;;;;35.20;6.03;;;5.40;99.90;;;;;;5052380;28;20057;-63
2022/01/30 04:37:58;;;;;;;28.10;5.75;;;5.40;99.90;;;;;;5036514;28;20053;-62
2022/01/30 04:56:57;;;;;;;31.25;6.88;;;5.30;99.90;;;;;;5056318;28;20442;-63
2022/01/30 05:09:42;;;;;;;33.70;7.28;;;5.40;99.90;;;;;;5056100;28;20045;-64
2022/01/30 05:12:10;;;;;;;30.08;6.13;;;5.30;99.90;;;;;;5055963;28;20135;-63
2022/01/30 05:14:37;;;;;;;33.50;6.38;;;5.40;99.90;;;;;;5054689;28;20347;-63
2022/01/30 05:17:04;;;;;;;36.22;6.47;;;5.40;99.90;;;;;;5056025;28;20064;-64
2022/01/30 05:19:31;;;;;;;26.20;6.25;;;5.40;99.90;;;;;;5055389;28;20477;-63
2022/01/30 05:21:57;;;;;;;34.15;5.97;;;5.30;99.90;;;;;;5055373;28;20583;-62
2022/01/30 05:24:23;;;;;;;26.92;5.13;;;5.30;99.90;;;;;;5055026;28;20378;-62
2022/01/30 05:26:50;;;;;;;30.15;6.05;;;5.30;99.90;;;;;;5056030;28;20044;-64
2022/01/30 05:29:16;;;;;;;27.75;5.28;;;5.30;99.90;;;;;;5054665;28;20053;-63
2022/01/30 05:31:42;;;;;;;30.83;6.30;;;5.30;99.90;;;;;;5055523;28;20148;-62
2022/01/30 05:34:09;;;;;;;30.27;6.45;;;5.20;99.90;;;;;;5055718;28;20179;-63
2022/01/30 05:36:38;;;;;;;37.35;6.72;;;5.20;99.90;;;;;;5055668;28;20057;-63
2022/01/30 05:39:04;;;;;;;33.25;6.88;;;5.10;99.90;;;;;;5055349;28;20101;-63
2022/01/30 05:41:32;;;;;;;30.75;7.10;;;5.10;99.90;;;;;;5055254;28;20033;-62
2022/01/30 05:44:06;;;;;;;36.63;6.38;;;5.10;99.90;;;;;;5055177;28;20481;-63
2022/01/30 05:46:43;;;;;;;37.83;7.32;;;5.10;99.90;;;;;;5055437;28;20041;-63
2022/01/30 05:49:12;;;;;;;33.45;6.32;;;5.10;99.90;;;;;;5055389;28;20040;-64
2022/01/30 05:51:38;;;;;;;31.77;6.85;;;5.10;99.90;;;;;;5055071;28;20098;-63
2022/01/30 05:54:03;;;;;;;34.70;6.68;;;5.20;99.90;;;;;;5055453;28;20041;-64
2022/01/30 05:56:29;;;;;;;34.20;6.82;;;5.20;99.90;;;;;;5055146;28;20060;-64
2022/01/30 05:58:54;;;;;;;36.47;7.15;;;5.30;99.90;;;;;;5055039;28;20075;-62
2022/01/30 06:01:20;;;;;;;32.08;6.93;;;5.30;99.90;;;;;;5054877;28;20465;-63
2022/01/30 06:03:46;;;;;;;33.83;6.47;;;5.30;99.90;;;;;;5054723;28;20045;-63
2022/01/30 06:06:13;;;;;;;34.58;6.78;;;5.30;99.90;;;;;;5055378;28;20067;-63
2022/01/30 06:08:57;;;;;;;31.40;5.97;;;5.20;99.90;;;;;;5054679;28;20450;-63
2022/01/30 06:11:23;;;;;;;32.03;6.67;;;5.10;99.90;;;;;;5054532;28;20093;-62
2022/01/30 06:13:48;;;;;;;35.50;7.03;;;5.10;99.90;;;;;;5055018;28;20267;-63
2022/01/30 06:16:14;;;;;;;40.75;7.57;;;5.10;99.90;;;;;;5054606;28;20389;-64
2022/01/30 06:18:40;;;;;;;28.88;6.45;;;5.10;99.90;;;;;;5054994;28;20056;-64
2022/01/30 06:21:05;;;;;;;36.13;7.43;;;5.00;99.90;;;;;;5053518;28;20064;-63
2022/01/30 06:23:31;;;;;;;28.75;6.40;;;5.00;99.90;;;;;;5054583;28;20378;-64
2022/01/30 06:25:56;;;;;;;35.78;6.32;;;5.00;99.90;;;;;;5054503;28;20029;-64
2022/01/30 06:28:23;;;;;;;39.00;6.75;;;4.90;99.90;;;;;;5054076;28;20056;-64
2022/01/30 06:30:49;;;;;;;32.47;6.60;;;4.90;99.90;;;;;;5053945;28;20045;-63
2022/01/30 06:33:15;;;;;;;35.67;6.82;;;4.90;99.90;;;;;;5054549;28;20044;-64
2022/01/30 06:35:41;;;;;;;33.45;6.90;;;4.90;99.90;;;;;;5054616;28;20044;-63
2022/01/30 06:38:07;;;;;;;34.60;6.55;;;4.90;99.90;;;;;;5054224;28;20037;-62
2022/01/30 06:40:32;;;;;;;33.35;5.57;;;5.00;99.90;;;;;;5054172;28;20041;-64
2022/01/30 06:42:58;;;;;;;31.75;6.50;;;5.00;99.90;;;;;;5054392;28;20037;-63
2022/01/30 06:45:24;;;;;;;35.83;7.50;;;5.00;99.90;;;;;;5054089;28;20036;-64
2022/01/30 06:47:51;;;;;;;35.05;6.28;;;5.00;99.90;;;;;;5052965;28;20080;-64
2022/01/30 06:50:17;;;;;;;35.42;6.50;;;5.00;99.90;;;;;;5054414;28;20044;-62
2022/01/30 06:52:43;;;;;;;36.25;6.03;;;5.00;99.90;;;;;;5054559;28;20039;-63
2022/01/30 06:55:09;;;;;;;40.38;6.65;;;5.00;99.90;;;;;;5054420;28;20045;-63
2022/01/30 06:57:35;;;;;;;27.92;6.60;;;5.00;99.90;;;;;;5054205;28;20033;-63
2022/01/30 07:00:00;;;;;;;32.00;7.00;;;5.10;99.90;;;;;;5053588;28;20086;-63
2022/01/30 07:02:26;;;;;;;38.00;6.80;;;5.10;99.90;;;;;;5053820;28;20043;-64
2022/01/30 07:04:54;;;;;;;35.60;6.90;;;5.10;99.90;;;;;;5054314;28;20342;-64
2022/01/30 07:07:20;;;;;;;34.85;6.70;;;5.10;99.90;;;;;;5054241;28;20041;-63
2022/01/30 07:09:46;;;;;;;31.92;6.45;;;5.20;99.90;;;;;;5053580;28;20170;-62
2022/01/30 07:12:11;;;;;;;35.25;6.93;;;5.20;99.90;;;;;;5053917;28;20048;-63
2022/01/30 07:14:37;;;;;;;34.72;8.10;;;5.20;99.90;;;;;;5053327;28;20132;-63
2022/01/30 07:17:02;;;;;;;38.15;7.05;;;5.20;99.90;;;;;;5053811;28;20420;-63
2022/01/30 07:19:28;;;;;;;28.63;6.45;;;5.30;99.90;;;;;;5053332;28;20041;-62
2022/01/30 07:21:54;;;;;;;40.72;7.80;;;5.30;99.90;;;;;;5052554;28;20048;-66
2022/01/30 07:24:20;;;;;;;39.83;8.00;;;5.40;99.90;;;;;;5053845;28;20474;-62
2022/01/30 07:26:45;;;;;;;38.13;7.05;;;5.50;99.90;;;;;;5053844;28;20032;-64
2022/01/30 07:29:11;;;;;;;41.33;7.82;;;5.40;99.90;;;;;;5053535;28;20047;-63
2022/01/30 07:31:37;;;;;;;39.65;7.03;;;5.40;99.90;;;;;;5053265;28;20055;-64
2022/01/30 07:34:03;;;;;;;33.58;8.20;;;5.50;99.90;;;;;;5053709;28;20092;-63
2022/01/30 07:36:32;;;;;;;32.22;6.40;;;5.50;99.90;;;;;;5053857;28;20033;-63
2022/01/30 07:38:58;;;;;;;40.50;7.40;;;5.50;99.90;;;;;;5052088;28;20041;-64
2022/01/30 07:41:23;;;;;;;35.40;7.18;;;5.50;99.90;;;;;;5051057;28;20055;-64
2022/01/30 07:43:49;;;;;;;38.50;7.07;;;5.50;99.90;;;;;;5052157;28;20033;-63
2022/01/30 07:46:15;;;;;;;33.30;7.20;;;5.50;99.90;;;;;;5047492;28;20225;-63
2022/01/30 07:48:41;;;;;;;38.70;6.95;;;5.60;99.90;;;;;;5034956;28;20045;-64
2022/01/30 07:51:06;;;;;;;38.65;7.63;;;5.60;99.90;;;;;;5031512;28;20148;-64
2022/01/30 07:53:32;;;;;;;36.22;6.22;;;5.60;99.90;;;;;;5039332;28;20049;-64
2022/01/30 07:55:58;;;;;;;35.33;6.95;;;5.60;99.90;;;;;;5050461;28;20032;-64
2022/01/30 07:58:24;;;;;;;36.70;6.93;;;5.70;99.90;;;;;;5047463;28;20496;-63
2022/01/30 08:00:50;;;;;;;40.28;7.53;;;5.70;99.90;;;;;;5052439;28;20108;-63
2022/01/30 08:03:15;;;;;;;33.35;6.43;;;5.70;99.90;;;;;;5052958;28;20053;-63
2022/01/30 08:05:41;;;;;;;38.10;7.88;;;5.70;99.90;;;;;;5049123;28;20033;-63
2022/01/30 08:08:07;;;;;;;37.00;8.07;;;5.80;99.90;;;;;;5052800;28;20047;-63
2022/01/30 08:10:34;;;;;;;36.72;6.68;;;5.70;99.90;;;;;;5048661;28;20557;-63
2022/01/30 08:13:00;;;;;;;41.45;7.93;;;5.80;99.90;;;;;;5053103;28;20357;-63
2022/01/30 08:15:25;;;;;;;36.97;7.32;;;5.80;99.90;;;;;;5053034;28;20056;-63
2022/01/30 08:17:51;;;;;;;39.53;7.78;;;5.80;99.90;;;;;;5049351;28;20072;-63
2022/01/30 08:20:18;;;;;;;38.10;7.97;;;5.80;99.90;;;;;;5036763;28;20040;-65
2022/01/30 08:22:49;;;;;;;38.60;7.38;;;5.80;99.90;;;;;;5052697;28;20044;-63
2022/01/30 08:25:20;;;;;;;36.80;8.05;;;5.80;99.90;;;;;;5052001;28;20462;-63
2022/01/30 08:27:46;;;;;;;38.70;8.02;;;5.80;99.90;;;;;;5038742;28;20116;-62
2022/01/30 08:30:12;;;;;;;40.10;6.82;;;5.80;99.90;;;;;;5056563;28;20076;-62
2022/01/30 08:32:45;;;;;;;34.47;7.22;;;5.80;99.90;;;;;;5055560;28;20482;-63
2022/01/30 08:35:14;;;;;;;39.13;8.20;;;5.80;99.90;;;;;;5056639;28;20037;-64
2022/01/30 08:37:40;;;;;;;41.95;7.75;;;5.80;99.90;;;;;;5055292;28;20044;-64
2022/01/30 08:40:10;;;;;;;41.28;6.95;;;5.80;99.90;;;;;;5056085;28;20087;-62
2022/01/30 08:42:36;;;;;;;36.60;7.85;;;5.80;99.90;;;;;;5056900;28;20041;-62
2022/01/30 08:45:04;;;;;;;44.13;7.75;;;5.90;99.90;;;;;;5055866;28;20045;-65
2022/01/30 08:47:29;;;;;;;36.75;6.65;;;5.90;99.90;;;;;;5056201;28;20051;-66
2022/01/30 08:49:55;;;;;;;38.30;7.10;;;5.90;99.90;;;;;;5054895;28;20049;-66
2022/01/30 08:52:21;;;;;;;36.40;7.57;;;5.90;99.90;;;;;;5055415;28;20037;-63
2022/01/30 08:54:49;;;;;;;55.58;8.63;;;5.80;99.90;;;;;;5055553;28;20167;-63
2022/01/30 08:57:15;;;;;;;35.08;7.88;;;5.80;99.90;;;;;;5056357;28;20052;-63
2022/01/30 08:59:41;;;;;;;38.45;7.45;;;5.80;99.90;;;;;;5055867;28;20033;-64
2022/01/30 09:02:07;;;;;;;36.97;7.78;;;5.80;99.90;;;;;;5055240;28;20045;-64
2022/01/30 09:04:33;;;;;;;39.78;8.55;;;5.70;99.90;;;;;;5055540;28;20044;-64
2022/01/30 09:06:59;;;;;;;35.63;7.85;;;5.70;99.90;;;;;;5055021;28;20378;-62
2022/01/30 09:09:25;;;;;;;44.20;8.32;;;5.60;99.90;;;;;;5055729;28;20041;-63
2022/01/30 09:11:52;;;;;;;36.92;7.15;;;5.70;99.90;;;;;;5055367;28;20474;-64
2022/01/30 09:14:18;;;;;;;41.13;8.10;;;5.70;99.90;;;;;;5054941;28;20033;-63
2022/01/30 09:16:47;;;;;;;39.67;8.30;;;5.80;99.90;;;;;;5055601;28;20332;-62
2022/01/30 09:19:12;;;;;;;41.13;7.70;;;5.90;99.90;;;;;;5021546;28;20045;-64
2022/01/30 09:21:38;;;;;;;36.55;6.70;;;5.90;99.90;;;;;;5055533;28;20048;-62
2022/01/30 09:24:04;;;;;;;41.45;8.27;;;6.00;99.90;;;;;;5055957;28;20476;-64
2022/01/30 09:26:29;;;;;;;41.83;7.90;;;6.00;99.90;;;;;;5055843;28;20048;-63
2022/01/30 09:28:55;;;;;;;29.60;6.55;;;6.00;99.90;;;;;;5055013;28;20116;-63
2022/01/30 09:31:21;;;;;;;36.13;6.88;;;6.10;99.90;;;;;;5054871;28;20086;-62
2022/01/30 09:33:46;;;;;;;41.72;7.70;;;6.20;99.90;;;;;;5055517;28;20069;-63
2022/01/30 09:36:13;;;;;;;34.63;6.30;;;6.20;99.90;;;;;;5055285;28;20489;-64
2022/01/30 09:38:40;;;;;;;31.85;6.47;;;6.20;99.90;;;;;;5053538;28;20037;-62
2022/01/30 09:41:08;;;;;;;29.90;6.32;;;6.30;99.90;;;;;;5053776;28;20049;-62
2022/01/30 09:43:34;;;;;;;34.63;6.70;;;6.30;99.90;;;;;;5053569;28;20037;-62
2022/01/30 09:46:01;;;;;;;36.10;6.43;;;6.30;99.90;;;;;;5053097;28;20041;-63
2022/01/30 09:48:26;;;;;;;37.53;7.10;;;6.40;99.90;;;;;;5054252;28;20032;-62
2022/01/30 09:50:57;;;;;;;34.80;7.22;;;6.50;99.90;;;;;;5053971;28;20052;-62
2022/01/30 09:53:23;;;;;;;37.72;6.40;;;6.50;99.90;;;;;;5054680;28;20174;-61
2022/01/30 09:55:49;;;;;;;37.58;7.55;;;6.60;99.90;;;;;;5054426;28;20123;-61
2022/01/30 09:58:14;;;;;;;31.63;6.38;;;6.60;99.90;;;;;;5053579;28;20052;-62
2022/01/30 10:00:40;;;;;;;34.45;6.63;;;6.60;99.90;;;;;;5054826;28;20151;-61
2022/01/30 10:03:06;;;;;;;30.40;6.90;;;6.60;99.90;;;;;;5055335;28;20116;-62
2022/01/30 10:05:35;;;;;;;35.67;6.78;;;6.60;99.90;;;;;;5055420;28;20048;-63
2022/01/30 10:08:02;;;;;;;33.80;6.68;;;6.60;99.90;;;;;;5054953;28;20060;-62
2022/01/30 10:10:29;;;;;;;39.40;6.85;;;6.60;99.90;;;;;;5054795;28;20538;-62
2022/01/30 10:13:05;;;;;;;34.35;6.50;;;6.60;99.90;;;;;;5055305;28;20122;-62
2022/01/30 10:15:46;;;;;;;30.65;6.60;;;6.70;99.90;;;;;;5054944;28;20056;-63
2022/01/30 10:18:12;;;;;;;38.10;6.97;;;6.70;99.90;;;;;;5054899;28;20070;-63
2022/01/30 10:20:39;;;;;;;38.60;7.43;;;6.80;99.90;;;;;;5054309;28;20120;-62
2022/01/30 10:23:09;;;;;;;39.03;7.15;;;6.90;99.90;;;;;;5055018;28;20036;-62
2022/01/30 10:25:48;;;;;;;34.20;6.75;;;7.00;99.90;;;;;;5054901;28;20102;-61
2022/01/30 10:28:16;;;;;;;33.78;7.53;;;7.00;99.90;;;;;;5054812;28;20041;-61
2022/01/30 10:30:46;;;;;;;33.97;6.50;;;7.00;99.90;;;;;;5054331;28;20041;-62
2022/01/30 10:33:13;;;;;;;36.75;7.53;;;7.10;99.90;;;;;;5054868;28;20056;-62
2022/01/30 10:35:57;;;;;;;36.08;7.55;;;7.00;99.90;;;;;;5054829;28;20052;-61
2022/01/30 10:38:27;;;;;;;39.47;8.50;;;7.00;99.90;;;;;;5054135;28;20114;-61
2022/01/30 10:41:12;;;;;;;39.03;8.18;;;6.90;99.90;;;;;;5053880;28;20448;-61
2022/01/30 10:43:52;;;;;;;39.83;7.72;;;6.90;99.90;;;;;;5054574;28;20357;-63
2022/01/30 10:46:25;;;;;;;32.85;6.95;;;6.90;99.90;;;;;;5054235;28;20033;-61
2022/01/30 10:48:58;;;;;;;39.60;7.07;;;6.80;99.90;;;;;;5053897;28;20045;-63
2022/01/30 10:51:26;;;;;;;37.50;8.27;;;6.80;99.90;;;;;;5054118;28;20164;-62
2022/01/30 10:53:52;;;;;;;41.03;7.47;;;6.80;99.90;;;;;;5053452;28;20048;-63
2022/01/30 10:56:25;;;;;;;40.75;7.15;;;6.90;99.90;;;;;;5054276;28;20461;-62
2022/01/30 10:59:16;;;;;;;37.30;7.72;;;7.00;99.90;;;;;;5053888;28;20059;-62
2022/01/30 11:01:47;;;;;;;41.13;7.60;;;7.00;99.90;;;;;;5053965;28;20074;-63
2022/01/30 11:04:27;;;;;;;42.00;6.80;;;7.10;99.90;;;;;;5054501;28;20115;-60
2022/01/30 11:06:54;;;;;;;34.05;6.80;;;7.10;99.90;;;;;;5054042;28;20243;-63
2022/01/30 11:09:31;;;;;;;34.90;7.32;;;7.10;99.90;;;;;;5053889;28;20041;-62
2022/01/30 11:12:10;;;;;;;44.60;9.63;;;7.10;99.90;;;;;;5053806;28;20067;-62
2022/01/30 11:17:15;;;;;;;39.83;8.02;;;7.20;99.90;;;;;;5053858;28;20077;-62
2022/01/30 11:19:44;;;;;;;35.75;6.80;;;7.30;99.90;;;;;;5052400;28;20171;-63
2022/01/30 11:22:18;;;;;;;30.52;6.88;;;7.30;99.90;;;;;;5053858;28;20110;-62
2022/01/30 11:24:53;;;;;;;;;;;7.40;99.90;;;;;;5054458;28;20052;-62
2022/01/30 11:27:21;;;;;;;34.38;7.50;;;7.50;99.90;;;;;;5053782;28;19927;-63
2022/01/30 11:29:48;;;;;;;34.72;7.28;;;7.60;99.90;;;;;;5052867;28;20055;-62
2022/01/30 11:32:15;;;;;;;36.30;6.85;;;7.50;99.90;;;;;;5053773;28;20052;-63
2022/01/30 11:34:43;;;;;;;31.15;7.50;;;7.60;99.90;;;;;;5053718;28;20075;-62
2022/01/30 11:37:11;;;;;;;32.53;6.05;;;7.50;99.90;;;;;;5053732;28;20052;-62
2022/01/30 11:39:45;;;;;;;31.00;6.32;;;7.50;99.90;;;;;;5050267;28;20045;-62
2022/01/30 11:42:11;;;;;;;33.85;7.03;;;7.50;99.90;;;;;;5053106;28;20469;-63
2022/01/30 11:44:49;;;;;;;37.80;8.43;;;7.40;99.90;;;;;;5052430;28;20461;-61
2022/01/30 11:47:19;;;;;;;38.38;7.82;;;7.40;99.90;;;;;;5053468;28;20029;-61
2022/01/30 11:50:00;;;;;;;30.70;7.80;;;7.40;99.90;;;;;;5051875;28;20048;-63
2022/01/30 11:52:50;;;;;;;33.80;6.25;;;7.30;99.90;;;;;;5053442;28;20052;-62
2022/01/30 11:55:46;;;;;;;32.10;7.72;;;7.20;99.90;;;;;;5053529;28;20045;-61
2022/01/30 11:58:30;;;;;;;26.25;5.97;;;7.20;99.90;;;;;;5053231;28;20049;-63
2022/01/30 12:01:01;;;;;;;27.02;5.90;;;7.10;99.90;;;;;;5052866;28;20041;-62
2022/01/30 12:03:29;;;;;;;27.75;6.53;;;7.20;99.90;;;;;;5057451;28;20032;-61
2022/01/30 12:06:16;;;;;;;33.75;7.03;;;7.10;99.90;;;;;;5057732;28;20104;-62
2022/01/30 12:08:47;;;;;;;34.63;6.03;;;7.10;99.90;;;;;;5057045;28;20067;-62
2022/01/30 12:11:39;;;;;;;31.83;5.75;;;7.20;99.90;;;;;;5057334;28;20055;-62
2022/01/30 12:14:08;;;;;;;27.27;5.72;;;7.30;99.90;;;;;;5056309;28;20114;-62
2022/01/30 12:16:47;;;;;;;33.35;7.07;;;7.30;99.90;;;;;;5056603;28;20063;-62
2022/01/30 12:19:16;;;;;;;28.40;7.80;;;7.40;99.90;;;;;;5056770;28;20481;-62
2022/01/30 12:21:43;;;;;;;31.33;6.40;;;7.40;99.90;;;;;;5057014;28;20086;-63
2022/01/30 12:24:22;;;;;;;27.40;7.13;;;7.50;99.90;;;;;;5055890;28;20088;-62
2022/01/30 12:26:56;;;;;;;25.40;5.60;;;7.60;99.90;;;;;;5057063;28;20037;-61
2022/01/30 12:29:42;;;;;;;24.98;5.50;;;7.60;99.90;;;;;;5056954;28;20047;-61
2022/01/30 12:32:30;;;;;;;28.52;6.20;;;7.50;99.90;;;;;;5056904;28;20041;-63
2022/01/30 12:34:56;;;;;;;34.88;6.72;;;7.50;99.90;;;;;;5056989;28;20059;-63
2022/01/30 12:37:21;;;;;;;24.90;5.30;;;7.40;99.90;;;;;;5056704;28;20041;-62
2022/01/30 12:39:47;;;;;;;33.47;6.55;;;7.40;99.90;;;;;;5055777;28;20041;-63
2022/01/30 12:42:15;;;;;;;32.95;5.75;;;7.40;99.90;;;;;;5056512;28;20442;-63
2022/01/30 12:44:41;;;;;;;28.08;6.00;;;7.40;99.90;;;;;;5055785;28;20051;-61
2022/01/30 12:47:07;;;;;;;41.65;7.75;;;7.50;99.90;;;;;;5056522;28;20041;-63
2022/01/30 12:49:40;;;;;;;28.90;6.05;;;7.50;99.90;;;;;;5055024;28;20040;-62
2022/01/30 12:52:08;;;;;;;26.88;6.20;;;7.60;99.90;;;;;;5056669;28;20048;-61
2022/01/30 12:54:39;;;;;;;29.77;6.35;;;7.60;99.90;;;;;;5056692;28;20386;-62
2022/01/30 12:57:07;;;;;;;35.22;6.10;;;7.70;99.90;;;;;;5056501;28;20071;-62
2022/01/30 12:59:33;;;;;;;37.67;7.93;;;7.70;99.90;;;;;;5055712;28;20091;-63
2022/01/30 13:02:07;;;;;;;30.15;6.30;;;7.80;99.90;;;;;;5056207;28;20040;-61
2022/01/30 13:04:33;;;;;;;32.10;5.97;;;7.90;99.90;;;;;;5055476;28;20059;-62
2022/01/30 13:06:59;;;;;;;34.58;6.80;;;7.90;99.90;;;;;;5055218;28;20418;-62
2022/01/30 13:09:30;;;;;;;37.60;7.47;;;8.00;99.90;;;;;;5055048;28;20128;-62
2022/01/30 13:12:11;;;;;;;30.27;6.40;;;7.90;99.90;;;;;;5056335;28;20083;-62
2022/01/30 13:14:38;;;;;;;43.22;7.75;;;7.70;99.90;;;;;;5055218;28;20048;-63
2022/01/30 13:17:05;;;;;;;33.58;6.78;;;7.60;99.90;;;;;;5056127;28;20044;-63
2022/01/30 13:19:33;;;;;;;35.92;6.38;;;7.50;99.90;;;;;;5055524;28;20053;-63
2022/01/30 13:22:01;;;;;;;33.55;6.07;;;7.40;99.90;;;;;;5056184;28;20041;-62
2022/01/30 13:24:27;;;;;;;34.03;7.22;;;7.50;99.90;;;;;;5055840;28;20041;-62
2022/01/30 13:27:05;;;;;;;28.40;5.65;;;7.50;99.90;;;;;;5055989;28;20037;-63
2022/01/30 13:29:34;;;;;;;32.05;7.30;;;7.50;99.90;;;;;;5055382;28;20045;-61
2022/01/30 13:32:01;;;;;;;36.63;8.05;;;7.50;99.90;;;;;;5054848;28;20120;-61
2022/01/30 13:34:31;;;;;;;29.40;6.68;;;7.50;99.90;;;;;;5055742;28;20048;-62
2022/01/30 13:37:05;;;;;;;31.02;6.57;;;7.60;99.90;;;;;;5055664;28;20044;-61
2022/01/30 13:39:39;;;;;;;45.37;8.13;;;7.60;99.90;;;;;;5054777;28;20375;-61
2022/01/30 13:47:57;;;;;;;34.72;7.30;;;7.50;99.90;;;;;;5055554;28;20051;-62
2022/01/30 13:50:26;;;;;;;34.90;6.30;;;7.50;99.90;;;;;;5054855;28;20048;-62
2022/01/30 13:53:08;;;;;;;33.50;7.13;;;7.40;99.90;;;;;;5055480;28;20068;-62
2022/01/30 13:55:37;;;;;;;27.50;5.90;;;7.50;99.90;;;;;;5055238;28;20037;-63
2022/01/30 13:58:03;;;;;;;38.40;7.32;;;7.50;99.90;;;;;;5055277;28;20036;-63
2022/01/30 14:00:39;;;;;;;33.80;6.47;;;7.40;99.90;;;;;;5053461;28;20049;-63